Time;durP1;ratioP1;P1;durP2;ratioP2;P2;SDS_P1;SDS_P2;PMS_P1;PMS_P2;Temp;Humidity;BMP_temperature;BMP_pressure;BME280_temperature;BME280_humidity;BME280_pressure;Samples;Min_cycle;Max_cycle;Signal;HPM_P1;HPM_P2
2021/09/08 00:00:50;;;;;;;48.40;35.30;;;;;;;10.73;100.00;99881.31;2079748;28;20225;-74
2021/09/08 00:01:50;;;;;;;38.00;29.58;;;;;;;10.73;100.00;99886.66;2088025;28;20222;-74
2021/09/08 00:02:52;;;;;;;37.70;31.10;;;;;;;10.70;100.00;99891.75;2087939;28;20223;-74
2021/09/08 00:03:53;;;;;;;41.45;31.63;;;;;;;10.68;100.00;99894.69;2079424;28;20235;-74
2021/09/08 00:04:56;;;;;;;37.53;30.60;;;;;;;10.68;100.00;99892.00;2087795;28;20265;-74
2021/09/08 00:05:57;;;;;;;43.00;31.95;;;;;;;10.67;100.00;99887.75;2088746;28;20325;-74
2021/09/08 00:06:59;;;;;;;36.42;30.75;;;;;;;10.70;100.00;99897.09;2087863;28;20226;-74
2021/09/08 00:08:01;;;;;;;40.58;30.48;;;;;;;10.67;100.00;99898.41;2088128;28;20704;-74
2021/09/08 00:09:03;;;;;;;42.85;32.03;;;;;;;10.72;100.00;99886.94;2088571;28;20251;-74
2021/09/08 00:10:05;;;;;;;49.67;32.70;;;;;;;10.72;100.00;99898.41;2087549;28;20322;-74
2021/09/08 00:11:07;;;;;;;46.78;33.33;;;;;;;10.75;100.00;99900.50;2088096;28;20214;-74
2021/09/08 00:12:09;;;;;;;47.40;31.95;;;;;;;10.79;100.00;99889.31;2088404;28;20287;-74
2021/09/08 00:13:11;;;;;;;44.30;32.42;;;;;;;10.83;100.00;99885.00;2088808;28;20223;-74
2021/09/08 00:14:11;;;;;;;50.05;33.08;;;;;;;10.83;100.00;99890.31;2088649;28;20226;-74
2021/09/08 00:15:14;;;;;;;49.08;35.55;;;;;;;10.85;100.00;99890.84;2087938;28;20280;-74
2021/09/08 00:16:16;;;;;;;50.28;33.35;;;;;;;10.83;100.00;99885.00;2079823;28;20226;-74
2021/09/08 00:17:18;;;;;;;46.55;33.58;;;;;;;10.82;100.00;99889.53;2079828;28;20215;-74
2021/09/08 00:18:19;;;;;;;40.60;32.63;;;;;;;10.80;100.00;99889.03;2087953;28;20231;-74
2021/09/08 00:19:23;;;;;;;42.05;31.50;;;;;;;10.80;100.00;99888.22;2088615;28;20219;-74
2021/09/08 00:20:25;;;;;;;39.60;29.92;;;;;;;10.75;100.00;99889.03;2088199;28;20816;-74
2021/09/08 00:21:25;;;;;;;39.17;29.98;;;;;;;10.75;100.00;99892.50;2088586;28;20234;-74
2021/09/08 00:22:27;;;;;;;44.73;32.30;;;;;;;10.75;100.00;99892.50;2088693;28;22433;-74
2021/09/08 00:23:29;;;;;;;41.17;32.08;;;;;;;10.74;100.00;99887.44;2088709;28;20260;-74
2021/09/08 00:24:31;;;;;;;44.47;32.85;;;;;;;10.72;100.00;99885.06;2088622;28;20742;-74
2021/09/08 00:25:32;;;;;;;45.50;32.78;;;;;;;10.71;100.00;99885.34;2088644;28;20229;-74
2021/09/08 00:26:34;;;;;;;43.63;31.73;;;;;;;10.70;100.00;99889.09;2088670;28;20732;-74
2021/09/08 00:27:35;;;;;;;36.13;30.30;;;;;;;10.69;100.00;99890.16;2087696;28;20234;-74
2021/09/08 00:28:37;;;;;;;41.75;32.53;;;;;;;10.64;100.00;99884.84;2087507;28;20246;-75
2021/09/08 00:29:38;;;;;;;48.38;32.78;;;;;;;10.62;100.00;99887.78;2088530;28;20314;-74
2021/09/08 00:30:40;;;;;;;37.90;29.70;;;;;;;10.60;100.00;99884.59;2088604;28;20218;-74
2021/09/08 00:31:42;;;;;;;33.50;28.05;;;;;;;10.57;100.00;99884.34;2087837;28;20230;-74
2021/09/08 00:32:45;;;;;;;43.03;30.67;;;;;;;10.52;100.00;99887.84;2087957;28;20218;-74
2021/09/08 00:33:47;;;;;;;40.67;30.00;;;;;;;10.50;100.00;99887.31;2087756;28;20238;-74
2021/09/08 00:34:50;;;;;;;41.78;29.88;;;;;;;10.47;100.00;99883.31;2087978;28;20786;-74
2021/09/08 00:35:51;;;;;;;36.80;30.00;;;;;;;10.45;100.00;99884.69;2088704;28;20226;-74
2021/09/08 00:36:53;;;;;;;38.43;30.13;;;;;;;10.43;100.00;99886.84;2087339;28;20231;-75
2021/09/08 00:37:53;;;;;;;37.33;30.08;;;;;;;10.40;100.00;99887.38;2087913;28;20234;-74
2021/09/08 00:38:57;;;;;;;40.03;30.65;;;;;;;10.37;100.00;99886.03;2088070;28;20721;-74
2021/09/08 00:39:58;;;;;;;40.25;30.30;;;;;;;10.35;100.00;99890.06;2087901;28;20229;-74
2021/09/08 00:41:01;;;;;;;34.10;28.80;;;;;;;10.34;100.00;99891.16;2088159;28;20222;-74
2021/09/08 00:42:08;;;;;;;39.85;30.83;;;;;;;10.30;100.00;99887.41;2087834;28;20740;-74
2021/09/08 00:43:09;;;;;;;44.58;32.85;;;;;;;10.28;100.00;99894.91;2088287;28;20330;-74
2021/09/08 00:44:11;;;;;;;45.70;32.80;;;;;;;10.28;100.00;99889.56;2088481;28;20309;-74
2021/09/08 00:45:14;;;;;;;47.17;35.40;;;;;;;10.26;100.00;99891.72;2088550;28;20305;-73
2021/09/08 00:46:14;;;;;;;35.30;29.92;;;;;;;10.24;100.00;99891.16;2088751;28;20210;-74
2021/09/08 00:47:20;;;;;;;40.45;30.25;;;;;;;10.20;100.00;99889.03;2088615;28;20276;-74
2021/09/08 00:48:22;;;;;;;39.65;30.30;;;;;;;10.17;100.00;99884.25;2087874;28;20273;-74
2021/09/08 00:49:27;;;;;;;35.70;29.77;;;;;;;10.13;100.00;99893.84;2079275;28;20230;-74
2021/09/08 00:50:29;;;;;;;48.20;35.08;;;;;;;10.13;100.00;99891.19;2087973;28;20222;-74
2021/09/08 00:51:33;;;;;;;54.05;37.03;;;;;;;10.15;100.00;99890.91;2087748;28;20611;-74
2021/09/08 00:52:36;;;;;;;51.53;36.45;;;;;;;10.15;100.00;99891.69;2087785;28;20739;-74
2021/09/08 00:53:38;;;;;;;35.47;29.38;;;;;;;10.15;100.00;99882.91;2087349;28;20570;-74
2021/09/08 00:54:47;;;;;;;50.80;34.63;;;;;;;10.13;100.00;99885.84;2087898;28;20784;-74
2021/09/08 00:55:53;;;;;;;49.55;36.63;;;;;;;10.13;100.00;99887.72;2088198;28;20704;-75
2021/09/08 00:56:58;;;;;;;44.90;32.53;;;;;;;10.14;100.00;99883.97;2087806;28;20736;-74
2021/09/08 00:58:01;;;;;;;50.60;35.80;;;;;;;10.12;100.00;99896.78;2079917;28;20223;-74
2021/09/08 00:59:03;;;;;;;41.55;32.40;;;;;;;10.12;100.00;99886.91;2087845;28;20305;-74
2021/09/08 01:00:06;;;;;;;36.70;29.67;;;;;;;10.10;100.00;99891.72;2088512;28;20244;-74
2021/09/08 01:01:07;;;;;;;38.22;31.23;;;;;;;10.09;100.00;99887.47;2088143;28;20257;-74
2021/09/08 01:02:12;;;;;;;42.85;32.10;;;;;;;10.07;100.00;99886.91;2087576;28;20227;-74
2021/09/08 01:03:14;;;;;;;37.10;30.83;;;;;;;10.07;100.00;99889.59;2087709;28;20245;-74
2021/09/08 01:04:15;;;;;;;43.83;32.45;;;;;;;10.04;100.00;99884.81;2088553;28;20242;-74
2021/09/08 01:05:21;;;;;;;41.75;30.85;;;;;;;10.04;100.00;99882.13;2088288;28;20283;-74
2021/09/08 01:06:23;;;;;;;49.53;34.65;;;;;;;10.04;100.00;99884.00;2087358;28;20227;-74
2021/09/08 01:07:29;;;;;;;48.20;34.40;;;;;;;10.05;100.00;99889.06;2087864;28;20222;-74
2021/09/08 01:08:31;;;;;;;46.55;34.92;;;;;;;10.06;100.00;99887.19;2088462;28;20233;-74
2021/09/08 01:09:33;;;;;;;47.13;34.20;;;;;;;10.06;100.00;99880.00;2088490;28;20297;-74
2021/09/08 01:10:36;;;;;;;51.05;36.75;;;;;;;10.08;100.00;99880.53;2088520;28;20226;-74
2021/09/08 01:11:40;;;;;;;49.90;34.50;;;;;;;10.11;100.00;99885.31;2088127;28;20275;-74
2021/09/08 01:12:42;;;;;;;52.83;36.22;;;;;;;10.14;100.00;99883.97;2088491;28;20276;-74
2021/09/08 01:13:44;;;;;;;43.03;33.70;;;;;;;10.14;100.00;99883.97;2087652;28;20672;-74
2021/09/08 01:14:46;;;;;;;42.45;31.30;;;;;;;10.12;100.00;99880.78;2087642;28;20244;-74
2021/09/08 01:15:56;;;;;;;46.30;30.27;;;;;;;10.09;100.00;99879.47;2088383;28;20227;-74
2021/09/08 01:16:59;;;;;;;39.13;30.95;;;;;;;10.08;100.00;99885.06;2088076;28;20290;-74
2021/09/08 01:18:00;;;;;;;37.70;29.92;;;;;;;10.06;100.00;99881.88;2088466;28;20226;-74
2021/09/08 01:19:02;;;;;;;44.33;33.60;;;;;;;10.04;100.00;99890.13;2088436;28;20222;-74
2021/09/08 01:20:03;;;;;;;38.92;30.27;;;;;;;10.03;100.00;99885.88;2088505;28;20226;-74
2021/09/08 01:21:05;;;;;;;39.75;30.20;;;;;;;9.99;100.00;99882.19;2089311;28;20218;-74
2021/09/08 01:22:06;;;;;;;40.88;30.55;;;;;;;9.96;100.00;99882.69;2089290;28;20246;-74
2021/09/08 01:23:09;;;;;;;41.77;30.90;;;;;;;9.91;100.00;99880.88;2081096;28;20223;-74
2021/09/08 01:24:09;;;;;;;41.45;29.95;;;;;;;9.91;100.00;99885.41;2088902;28;20250;-73
2021/09/08 01:25:11;;;;;;;42.83;33.80;;;;;;;9.88;100.00;99886.72;2089920;28;20226;-74
2021/09/08 01:26:15;;;;;;;54.03;35.95;;;;;;;9.86;100.00;99886.19;2089197;28;20313;-74
2021/09/08 01:27:16;;;;;;;56.95;37.60;;;;;;;9.89;100.00;99890.97;2081229;28;20305;-74
2021/09/08 01:28:17;;;;;;;42.90;32.20;;;;;;;9.91;100.00;99880.88;2089288;28;20246;-74
2021/09/08 01:29:19;;;;;;;40.40;30.53;;;;;;;9.92;100.00;99887.00;2089144;28;20692;-74
2021/09/08 01:30:22;;;;;;;46.05;30.85;;;;;;;9.89;100.00;99890.19;2089275;28;20242;-74
2021/09/08 01:31:25;;;;;;;36.58;29.20;;;;;;;9.86;100.00;99891.53;2088721;28;20645;-74
2021/09/08 01:32:32;;;;;;;38.50;30.08;;;;;;;9.85;100.00;99889.94;2081112;28;20238;-74
2021/09/08 01:33:34;;;;;;;50.40;36.60;;;;;;;9.83;100.00;99889.41;2089210;28;20223;-74
2021/09/08 01:34:36;;;;;;;52.42;37.60;;;;;;;9.85;100.00;99894.47;2089914;28;20219;-74
2021/09/08 01:35:37;;;;;;;49.55;31.63;;;;;;;9.85;100.00;99881.94;2089684;28;20245;-75
2021/09/08 01:36:39;;;;;;;43.53;30.90;;;;;;;9.83;100.00;99883.28;2089880;28;20253;-74
2021/09/08 01:37:40;;;;;;;46.00;34.78;;;;;;;9.82;100.00;99887.03;2089874;28;20587;-74
2021/09/08 01:38:43;;;;;;;41.83;31.93;;;;;;;9.80;100.00;99881.13;2089960;28;20249;-74
2021/09/08 01:39:43;;;;;;;46.70;31.77;;;;;;;9.79;100.00;99892.88;2089086;28;20301;-74
2021/09/08 01:40:45;;;;;;;50.00;35.53;;;;;;;9.76;100.00;99880.91;2089200;28;20704;-74
2021/09/08 01:41:47;;;;;;;56.72;39.33;;;;;;;9.85;100.00;99881.13;2089103;28;20247;-73
2021/09/08 01:42:49;;;;;;;43.72;32.17;;;;;;;9.86;100.00;99877.41;2089162;28;20782;-73
2021/09/08 01:43:49;;;;;;;52.22;34.88;;;;;;;9.83;100.00;99885.94;2089824;28;20223;-74
2021/09/08 01:44:51;;;;;;;51.23;35.80;;;;;;;9.82;100.00;99881.69;2089719;28;20229;-74
2021/09/08 01:45:52;;;;;;;50.38;36.38;;;;;;;9.83;100.00;99883.28;2089519;28;20250;-75
2021/09/08 01:46:56;;;;;;;56.50;37.42;;;;;;;9.84;100.00;99890.22;2089757;28;20234;-74
2021/09/08 01:47:57;;;;;;;53.05;37.90;;;;;;;9.86;100.00;99885.41;2089847;28;20830;-74
2021/09/08 01:49:00;;;;;;;55.03;37.93;;;;;;;9.89;100.00;99890.19;2089812;28;20620;-74
2021/09/08 01:50:01;;;;;;;55.75;37.45;;;;;;;9.90;100.00;99883.78;2089774;28;20583;-74
2021/09/08 01:51:02;;;;;;;53.93;38.80;;;;;;;9.92;100.00;99881.66;2089712;28;20222;-74
2021/09/08 01:52:04;;;;;;;44.17;33.30;;;;;;;10.00;100.00;99874.97;2089695;28;20218;-74
2021/09/08 01:53:05;;;;;;;47.42;32.33;;;;;;;9.96;100.00;99882.69;2089867;28;20222;-74
2021/09/08 01:54:07;;;;;;;47.90;33.55;;;;;;;9.91;100.00;99880.88;2088940;28;20242;-73
2021/09/08 01:55:10;;;;;;;41.60;32.67;;;;;;;9.88;100.00;99888.59;2088753;28;20233;-74
2021/09/08 01:56:13;;;;;;;42.22;32.75;;;;;;;9.84;100.00;99884.88;2089758;28;20306;-74
2021/09/08 01:57:14;;;;;;;52.00;32.72;;;;;;;9.81;100.00;99882.72;2089167;28;20222;-74
2021/09/08 01:58:16;;;;;;;40.13;31.50;;;;;;;9.79;100.00;99884.88;2088999;28;20226;-74
2021/09/08 01:59:17;;;;;;;52.50;34.72;;;;;;;9.76;100.00;99874.75;2088995;28;20317;-74
2021/09/08 02:00:18;;;;;;;47.83;35.05;;;;;;;9.76;100.00;99878.22;2088992;28;20219;-73
2021/09/08 02:01:22;;;;;;;48.10;32.50;;;;;;;9.80;100.00;99883.81;2089662;28;20238;-73
2021/09/08 02:02:23;;;;;;;42.20;33.05;;;;;;;9.79;100.00;99876.88;2089267;28;20260;-75
2021/09/08 02:03:26;;;;;;;44.13;32.27;;;;;;;9.80;100.00;99878.47;2089684;28;20238;-74
2021/09/08 02:04:28;;;;;;;42.50;32.03;;;;;;;9.79;100.00;99884.88;2089230;28;20238;-74
2021/09/08 02:05:29;;;;;;;53.70;33.67;;;;;;;9.78;100.00;99888.63;2088699;28;20250;-74
2021/09/08 02:06:30;;;;;;;49.37;35.50;;;;;;;9.78;100.00;99891.28;2088806;28;20222;-73
2021/09/08 02:07:31;;;;;;;51.38;34.78;;;;;;;9.82;100.00;99887.03;2088967;28;20306;-74
2021/09/08 02:08:34;;;;;;;50.63;36.73;;;;;;;9.82;100.00;99887.81;2089648;28;20230;-74
2021/09/08 02:09:36;;;;;;;57.03;39.30;;;;;;;9.87;100.00;99889.66;2088808;28;20253;-74
2021/09/08 02:10:38;;;;;;;54.40;36.85;;;;;;;9.92;100.00;99887.00;2088616;28;20218;-74
2021/09/08 02:11:41;;;;;;;53.40;36.25;;;;;;;9.95;100.00;99891.78;2089670;28;20310;-73
2021/09/08 02:12:43;;;;;;;54.95;36.53;;;;;;;9.90;100.00;99886.44;2089540;28;20341;-74
2021/09/08 02:13:44;;;;;;;57.92;36.78;;;;;;;9.88;100.00;99884.03;2088771;28;20583;-74
2021/09/08 02:14:46;;;;;;;44.67;31.67;;;;;;;9.89;100.00;99882.97;2080462;28;20227;-74
2021/09/08 02:15:46;;;;;;;44.47;32.60;;;;;;;9.87;100.00;99890.44;2088910;28;20258;-74
2021/09/08 02:16:48;;;;;;;47.60;33.73;;;;;;;9.83;100.00;99883.28;2089651;28;20227;-74
2021/09/08 02:17:50;;;;;;;38.70;31.52;;;;;;;9.78;100.00;99884.09;2088896;28;20242;-74
2021/09/08 02:18:52;;;;;;;44.58;33.13;;;;;;;9.75;100.00;99883.84;2088882;28;20640;-74
2021/09/08 02:19:54;;;;;;;45.10;32.83;;;;;;;9.73;100.00;99886.78;2089234;28;20257;-74
2021/09/08 02:20:55;;;;;;;40.97;31.63;;;;;;;9.69;100.00;99888.38;2089574;28;20561;-74
2021/09/08 02:21:56;;;;;;;42.40;32.07;;;;;;;9.66;100.00;99886.25;2088678;28;20292;-74
2021/09/08 02:22:57;;;;;;;39.03;31.83;;;;;;;9.61;100.00;99878.25;2088839;28;20700;-74
2021/09/08 02:23:59;;;;;;;45.93;31.97;;;;;;;9.58;100.00;99882.25;2088651;28;20598;-74
2021/09/08 02:25:01;;;;;;;45.30;31.80;;;;;;;9.55;100.00;99880.13;2088753;28;20309;-74
2021/09/08 02:26:02;;;;;;;42.58;31.33;;;;;;;9.50;100.00;99879.34;2080508;28;20231;-74
2021/09/08 02:27:05;;;;;;;42.70;31.55;;;;;;;9.48;100.00;99884.94;2080448;28;20280;-73
2021/09/08 02:28:08;;;;;;;40.50;31.75;;;;;;;9.45;100.00;99882.78;2088829;28;20218;-74
2021/09/08 02:29:13;;;;;;;42.45;30.77;;;;;;;9.43;100.00;99882.28;2088968;28;20314;-74
2021/09/08 02:30:14;;;;;;;44.78;31.17;;;;;;;9.41;100.00;99880.94;2089469;28;20219;-74
2021/09/08 02:31:29;;;;;;;42.45;32.58;;;;;;;9.40;100.00;99887.34;2089531;28;20227;-73
2021/09/08 02:32:31;;;;;;;39.00;30.90;;;;;;;9.38;100.00;99881.47;2087756;28;20688;-74
2021/09/08 02:33:32;;;;;;;54.25;33.53;;;;;;;9.35;100.00;99882.81;2080718;28;20690;-74
2021/09/08 02:34:35;;;;;;;43.33;32.13;;;;;;;9.31;100.00;99871.91;2088822;28;20658;-74
2021/09/08 02:35:36;;;;;;;41.58;31.83;;;;;;;9.30;100.00;99872.97;2089508;28;20766;-74
2021/09/08 02:36:38;;;;;;;44.03;30.57;;;;;;;9.29;100.00;99874.00;2089121;28;20627;-74
2021/09/08 02:37:38;;;;;;;47.75;34.10;;;;;;;9.27;100.00;99876.16;2089307;28;20234;-74
2021/09/08 02:38:40;;;;;;;53.00;35.07;;;;;;;9.27;100.00;99870.03;2088830;28;20225;-74
2021/09/08 02:39:40;;;;;;;41.30;32.33;;;;;;;9.28;100.00;99872.41;2080649;28;20302;-73
2021/09/08 02:40:44;;;;;;;50.47;34.93;;;;;;;9.26;100.00;99873.75;2088748;28;20233;-74
2021/09/08 02:41:45;;;;;;;47.05;34.08;;;;;;;9.26;100.00;99879.09;2088593;28;20227;-73
2021/09/08 02:42:47;;;;;;;46.90;33.10;;;;;;;9.27;100.00;99881.47;2088715;28;20225;-74
2021/09/08 02:43:47;;;;;;;44.75;32.67;;;;;;;9.26;100.00;99879.09;2089318;28;20241;-74
2021/09/08 02:44:49;;;;;;;44.03;33.10;;;;;;;9.24;100.00;99871.38;2089438;28;20269;-74
2021/09/08 02:45:50;;;;;;;45.15;34.05;;;;;;;9.25;100.00;99866.84;2089415;28;20232;-73
2021/09/08 02:46:52;;;;;;;49.07;35.93;;;;;;;9.26;100.00;99871.91;2089287;28;20231;-73
2021/09/08 02:47:53;;;;;;;54.13;35.63;;;;;;;9.30;100.00;99878.31;2088852;28;20223;-74
2021/09/08 02:48:55;;;;;;;49.35;36.13;;;;;;;9.31;100.00;99868.44;2089269;28;20231;-74
2021/09/08 02:49:55;;;;;;;59.38;38.13;;;;;;;9.35;100.00;99874.81;2089109;28;20317;-74
2021/09/08 02:50:57;;;;;;;44.57;34.23;;;;;;;9.35;100.00;99872.16;2088080;28;20241;-74
2021/09/08 02:51:57;;;;;;;44.17;32.45;;;;;;;9.34;100.00;99866.03;2088627;28;20309;-73
2021/09/08 02:52:59;;;;;;;43.07;32.10;;;;;;;9.33;100.00;99875.09;2089375;28;20222;-73
2021/09/08 02:54:00;;;;;;;42.75;32.53;;;;;;;9.28;100.00;99871.63;2089366;28;20298;-74
2021/09/08 02:55:02;;;;;;;40.35;32.60;;;;;;;9.26;100.00;99863.91;2089323;28;20683;-74
2021/09/08 02:56:04;;;;;;;42.00;31.77;;;;;;;9.26;100.00;99877.22;2089284;28;20211;-74
2021/09/08 02:57:06;;;;;;;38.70;31.33;;;;;;;9.25;100.00;99872.16;2089319;28;20279;-74
2021/09/08 02:58:07;;;;;;;47.72;32.28;;;;;;;9.22;100.00;99873.50;2088187;28;20253;-75
2021/09/08 02:59:08;;;;;;;48.33;32.87;;;;;;;9.20;100.00;99877.47;2088503;28;20234;-74
2021/09/08 03:00:09;;;;;;;40.47;31.77;;;;;;;9.17;100.00;99872.69;2089345;28;20254;-73
2021/09/08 03:01:11;;;;;;;41.38;31.70;;;;;;;9.17;100.00;99870.03;2089333;28;20680;-74
2021/09/08 03:02:14;;;;;;;39.78;31.73;;;;;;;9.12;100.00;99873.50;2089224;28;20235;-74
2021/09/08 03:03:19;;;;;;;40.92;31.00;;;;;;;9.13;100.00;99871.66;2089240;28;20223;-74
2021/09/08 03:04:20;;;;;;;44.42;31.25;;;;;;;9.13;100.00;99882.28;2089125;28;20309;-73
2021/09/08 03:05:22;;;;;;;42.30;31.37;;;;;;;9.09;100.00;99873.22;2088347;28;20227;-73
2021/09/08 03:06:22;;;;;;;39.53;30.52;;;;;;;9.06;100.00;99878.03;2088151;28;20285;-74
2021/09/08 03:07:24;;;;;;;36.50;30.33;;;;;;;9.05;100.00;99879.09;2089217;28;20226;-74
2021/09/08 03:08:25;;;;;;;39.22;31.17;;;;;;;9.01;100.00;99883.34;2088348;28;20265;-74
2021/09/08 03:09:27;;;;;;;43.93;32.70;;;;;;;9.02;100.00;99879.59;2080074;28;20227;-74
2021/09/08 03:10:30;;;;;;;44.28;33.20;;;;;;;9.00;100.00;99873.75;2088549;28;20241;-74
2021/09/08 03:11:33;;;;;;;44.20;32.35;;;;;;;8.98;100.00;99883.88;2089097;28;20245;-75
2021/09/08 03:12:34;;;;;;;42.78;32.00;;;;;;;8.99;100.00;99882.81;2089053;28;20295;-74
2021/09/08 03:13:35;;;;;;;45.90;33.40;;;;;;;8.97;100.00;99879.63;2089221;28;20226;-74
2021/09/08 03:14:36;;;;;;;41.17;31.08;;;;;;;8.97;100.00;99887.59;2088574;28;20308;-74
2021/09/08 03:15:39;;;;;;;41.27;31.27;;;;;;;8.95;100.00;99884.41;2088253;28;20230;-74
2021/09/08 03:16:41;;;;;;;40.97;31.60;;;;;;;8.95;100.00;99881.75;2089064;28;20810;-74
2021/09/08 03:17:43;;;;;;;44.85;30.88;;;;;;;8.93;100.00;99883.84;2089117;28;20760;-74
2021/09/08 03:18:44;;;;;;;45.35;31.80;;;;;;;8.92;100.00;99887.56;2088977;28;20285;-74
2021/09/08 03:19:45;;;;;;;39.87;31.30;;;;;;;8.91;100.00;99882.53;2089144;28;20294;-74
2021/09/08 03:20:46;;;;;;;38.75;30.73;;;;;;;8.90;100.00;99884.38;2089098;28;20675;-74
2021/09/08 03:21:48;;;;;;;42.87;32.43;;;;;;;8.89;100.00;99884.66;2088157;28;20223;-74
2021/09/08 03:22:48;;;;;;;41.20;31.27;;;;;;;8.89;100.00;99888.13;2080082;28;20310;-74
2021/09/08 03:23:51;;;;;;;40.13;30.90;;;;;;;8.87;100.00;99887.59;2088385;28;20218;-74
2021/09/08 03:24:53;;;;;;;44.92;33.10;;;;;;;8.88;100.00;99889.19;2088722;28;20234;-73
2021/09/08 03:25:54;;;;;;;42.27;32.90;;;;;;;8.91;100.00;99882.53;2089057;28;20230;-74
2021/09/08 03:26:56;;;;;;;41.78;33.13;;;;;;;8.92;100.00;99881.47;2088959;28;20586;-73
2021/09/08 03:27:58;;;;;;;44.05;32.25;;;;;;;8.94;100.00;99893.44;2089094;28;20619;-74
2021/09/08 03:28:59;;;;;;;43.78;32.60;;;;;;;8.97;100.00;99890.25;2089123;28;20225;-74
2021/09/08 03:30:01;;;;;;;46.55;31.48;;;;;;;8.93;100.00;99883.84;2088099;28;20222;-74
2021/09/08 03:31:03;;;;;;;43.83;31.67;;;;;;;8.94;100.00;99885.44;2088323;28;20222;-74
2021/09/08 03:32:04;;;;;;;38.10;31.15;;;;;;;8.94;100.00;99884.66;2088911;28;20218;-74
2021/09/08 03:33:06;;;;;;;40.03;31.27;;;;;;;8.92;100.00;99884.91;2089035;28;20603;-74
2021/09/08 03:34:06;;;;;;;40.53;31.67;;;;;;;8.88;100.00;99878.53;2088994;28;20461;-74
2021/09/08 03:35:09;;;;;;;36.40;29.90;;;;;;;8.89;100.00;99882.78;2087800;28;20645;-75
2021/09/08 03:36:10;;;;;;;39.58;30.65;;;;;;;8.89;100.00;99876.69;2088209;28;20250;-74
2021/09/08 03:37:11;;;;;;;39.92;30.90;;;;;;;8.87;100.00;99884.13;2088165;28;20253;-74
2021/09/08 03:38:17;;;;;;;42.88;30.40;;;;;;;8.85;100.00;99887.03;2088302;28;20588;-74
2021/09/08 03:39:19;;;;;;;41.22;31.38;;;;;;;8.84;100.00;99881.97;2088110;28;20309;-74
2021/09/08 03:40:20;;;;;;;38.93;30.87;;;;;;;8.82;100.00;99884.91;2088323;28;20226;-74
2021/09/08 03:41:21;;;;;;;41.78;31.10;;;;;;;8.80;100.00;99884.38;2089129;28;20562;-74
2021/09/08 03:42:24;;;;;;;37.07;30.93;;;;;;;8.77;100.00;99882.22;2088525;28;20322;-74
2021/09/08 03:43:25;;;;;;;39.88;30.77;;;;;;;8.78;100.00;99883.84;2088800;28;20756;-74
2021/09/08 03:44:26;;;;;;;36.57;29.63;;;;;;;8.76;100.00;99880.63;2088250;28;20616;-74
2021/09/08 03:45:27;;;;;;;41.03;30.70;;;;;;;8.73;100.00;99875.84;2087966;28;20309;-74
2021/09/08 03:46:29;;;;;;;36.50;30.17;;;;;;;8.71;100.00;99880.63;2088273;28;20684;-74
2021/09/08 03:47:29;;;;;;;39.85;31.65;;;;;;;8.70;100.00;99873.72;2088314;28;20302;-74
2021/09/08 03:48:31;;;;;;;39.43;31.10;;;;;;;8.70;100.00;99876.38;2080191;28;20223;-74
2021/09/08 03:49:32;;;;;;;40.67;30.50;;;;;;;8.70;100.00;99876.38;2080130;28;20239;-74
2021/09/08 03:50:33;;;;;;;44.87;31.13;;;;;;;8.68;100.00;99881.16;2088276;28;20219;-74
2021/09/08 03:51:35;;;;;;;39.78;30.63;;;;;;;8.67;100.00;99876.88;2088962;28;20223;-74
2021/09/08 03:52:37;;;;;;;40.08;31.50;;;;;;;8.68;100.00;99883.81;2088851;28;20669;-73
2021/09/08 03:53:38;;;;;;;41.33;32.00;;;;;;;8.67;100.00;99884.88;2087861;28;20314;-74
2021/09/08 03:54:39;;;;;;;42.40;32.53;;;;;;;8.65;100.00;99885.13;2088186;28;20227;-74
2021/09/08 03:55:40;;;;;;;41.05;31.63;;;;;;;8.64;100.00;99880.88;2088729;28;20638;-74
2021/09/08 03:56:41;;;;;;;41.53;31.23;;;;;;;8.64;100.00;99882.75;2088007;28;20681;-74
2021/09/08 03:57:45;;;;;;;45.33;34.53;;;;;;;8.63;100.00;99875.84;2087955;28;20272;-74
2021/09/08 03:58:49;;;;;;;46.83;32.83;;;;;;;8.65;100.00;99884.34;2088114;28;20218;-74
2021/09/08 03:59:50;;;;;;;38.75;31.25;;;;;;;8.63;100.00;99881.16;2088275;28;20219;-74
2021/09/08 04:00:52;;;;;;;43.23;32.33;;;;;;;8.63;100.00;99884.63;2079743;28;20670;-73
2021/09/08 04:01:52;;;;;;;41.00;30.77;;;;;;;8.64;100.00;99882.75;2087729;28;20290;-74
2021/09/08 04:02:54;;;;;;;43.10;31.17;;;;;;;8.61;100.00;99876.09;2088668;28;20234;-73
2021/09/08 04:03:55;;;;;;;36.80;30.38;;;;;;;8.63;100.00;99881.94;2087844;28;20230;-74
2021/09/08 04:05:00;;;;;;;36.85;30.83;;;;;;;8.62;100.00;99880.34;2087951;28;20586;-74
2021/09/08 04:06:03;;;;;;;43.13;30.75;;;;;;;8.61;100.00;99883.28;2088795;28;20222;-74
2021/09/08 04:07:05;;;;;;;39.47;31.53;;;;;;;8.59;100.00;99888.84;2088874;28;20242;-73
2021/09/08 04:08:06;;;;;;;39.22;31.55;;;;;;;8.60;100.00;99881.66;2088833;28;20230;-74
2021/09/08 04:09:07;;;;;;;37.57;30.67;;;;;;;8.60;100.00;99884.31;2088808;28;20226;-74
2021/09/08 04:10:09;;;;;;;41.42;30.88;;;;;;;8.60;100.00;99882.50;2088349;28;20227;-74
2021/09/08 04:11:10;;;;;;;41.63;31.58;;;;;;;8.59;100.00;99880.88;2087893;28;20616;-74
2021/09/08 04:12:11;;;;;;;41.38;31.40;;;;;;;8.58;100.00;99883.78;2087988;28;20314;-74
2021/09/08 04:13:14;;;;;;;39.60;31.30;;;;;;;8.58;100.00;99889.09;2087963;28;20226;-74
2021/09/08 04:14:15;;;;;;;35.55;29.48;;;;;;;8.56;100.00;99891.22;2088090;28;20242;-74
2021/09/08 04:15:17;;;;;;;40.83;30.53;;;;;;;8.57;100.00;99893.63;2088740;28;20214;-74
2021/09/08 04:16:17;;;;;;;43.42;31.50;;;;;;;8.56;100.00;99886.72;2087923;28;20242;-74
2021/09/08 04:17:19;;;;;;;36.87;29.67;;;;;;;8.56;100.00;99888.56;2088005;28;20229;-74
2021/09/08 04:18:20;;;;;;;44.80;30.77;;;;;;;8.57;100.00;99887.50;2088112;28;20704;-74
2021/09/08 04:19:21;;;;;;;40.30;30.90;;;;;;;8.56;100.00;99897.34;2087876;28;20612;-74
2021/09/08 04:20:22;;;;;;;40.45;31.42;;;;;;;8.56;100.00;99884.06;2088288;28;20589;-74
2021/09/08 04:21:24;;;;;;;40.30;31.00;;;;;;;8.56;100.00;99880.59;2088673;28;20310;-74
2021/09/08 04:22:24;;;;;;;42.28;30.73;;;;;;;8.55;100.00;99885.13;2088583;28;20247;-74
2021/09/08 04:23:26;;;;;;;58.03;35.03;;;;;;;8.58;100.00;99878.47;2088676;28;20227;-74
2021/09/08 04:24:27;;;;;;;41.55;32.05;;;;;;;8.61;100.00;99889.41;2088774;28;20226;-74
2021/09/08 04:25:28;;;;;;;45.17;31.93;;;;;;;8.63;100.00;99887.28;2088036;28;20308;-74
2021/09/08 04:26:29;;;;;;;41.92;30.95;;;;;;;8.64;100.00;99893.38;2088050;28;20647;-74
2021/09/08 04:27:30;;;;;;;43.90;30.97;;;;;;;8.64;100.00;99894.19;2088683;28;20249;-74
2021/09/08 04:28:32;;;;;;;39.03;30.25;;;;;;;8.64;100.00;99893.38;2088581;28;20317;-73
2021/09/08 04:29:34;;;;;;;45.47;31.05;;;;;;;8.66;100.00;99888.59;2088718;28;20219;-74
2021/09/08 04:30:35;;;;;;;39.22;31.05;;;;;;;8.65;100.00;99895.78;2088604;28;20226;-74
2021/09/08 04:31:36;;;;;;;41.20;30.77;;;;;;;8.65;100.00;99890.47;2088606;28;20253;-74
2021/09/08 04:32:41;;;;;;;40.88;30.92;;;;;;;8.68;100.00;99891.78;2087509;28;20223;-74
2021/09/08 04:33:44;;;;;;;43.70;32.83;;;;;;;8.68;100.00;99897.91;2087795;28;20761;-74
2021/09/08 04:34:45;;;;;;;42.03;31.33;;;;;;;8.68;100.00;99889.94;2088545;28;20685;-74
2021/09/08 04:35:47;;;;;;;40.17;30.57;;;;;;;8.70;100.00;99895.81;2088697;28;20550;-74
2021/09/08 04:36:48;;;;;;;43.35;32.83;;;;;;;8.71;100.00;99896.59;2087260;28;20226;-74
2021/09/08 04:37:49;;;;;;;44.27;31.43;;;;;;;8.71;100.00;99886.75;2079790;28;20219;-74
2021/09/08 04:38:50;;;;;;;39.58;31.30;;;;;;;8.75;100.00;99900.31;2087985;28;20353;-73
2021/09/08 04:39:53;;;;;;;38.87;30.13;;;;;;;8.75;100.00;99893.13;2088698;28;20238;-74
2021/09/08 04:40:54;;;;;;;39.80;30.73;;;;;;;8.75;100.00;99889.69;2088217;28;20237;-74
2021/09/08 04:41:56;;;;;;;43.07;31.17;;;;;;;8.76;100.00;99896.59;2088676;28;20222;-74
2021/09/08 04:42:56;;;;;;;55.72;34.85;;;;;;;8.79;100.00;99890.78;2087512;28;20676;-74
2021/09/08 04:43:59;;;;;;;46.77;33.13;;;;;;;8.83;100.00;99897.16;2079313;28;20336;-73